Time;durP1;ratioP1;P1;durP2;ratioP2;P2;SDS_P1;SDS_P2;PMS_P1;PMS_P2;Temp;Humidity;BMP_temperature;BMP_pressure;BME280_temperature;BME280_humidity;BME280_pressure;Samples;Min_cycle;Max_cycle;Signal;HPM_P1;HPM_P2
2023/12/03 00:02:20;;;;;;;28.97;17.03;;;;;;;;;;2611387;39;20801;-78
2023/12/03 00:04:48;;;;;;;39.77;22.40;;;;;;;;;;2612510;54;20414;-77
2023/12/03 00:07:14;;;;;;;39.60;20.87;;;;;;;;;;2612202;39;20915;-77
2023/12/03 00:09:40;;;;;;;27.23;18.67;;;;;;;;;;2609951;47;20949;-77
2023/12/03 00:12:07;;;;;;;32.83;21.33;;;;;;;;;;2611286;54;20980;-79
2023/12/03 00:14:33;;;;;;;33.50;19.90;;;;;;;;;;2611693;47;20431;-75
2023/12/03 00:16:59;;;;;;;31.47;16.70;;;;;;;;;;2611603;54;21408;-74
2023/12/03 00:19:25;;;;;;;23.57;12.40;;;;;;;;;;2612186;54;20400;-73
2023/12/03 00:21:51;;;;;;;32.17;18.70;;;;;;;;;;2610804;47;20466;-74
2023/12/03 00:24:18;;;;;;;31.43;18.83;;;;;;;;;;2611324;54;20424;-74
2023/12/03 00:26:44;;;;;;;37.07;20.93;;;;;;;;;;2611583;39;20502;-74
2023/12/03 00:29:10;;;;;;;38.20;21.53;;;;;;;;;;2611354;47;20435;-74
2023/12/03 00:31:36;;;;;;;23.13;15.90;;;;;;;;;;2612425;39;20809;-75
2023/12/03 00:34:03;;;;;;;35.37;21.17;;;;;;;;;;2611955;54;20413;-74
2023/12/03 00:36:29;;;;;;;17.97;12.10;;;;;;;;;;2611394;54;20399;-74
2023/12/03 00:38:56;;;;;;;31.23;20.60;;;;;;;;;;2611097;54;20955;-73
2023/12/03 00:41:22;;;;;;;16.73;11.10;;;;;;;;;;2610950;46;20463;-73
2023/12/03 00:43:48;;;;;;;25.83;16.10;;;;;;;;;;2610106;54;20435;-74
2023/12/03 00:46:17;;;;;;;27.23;16.03;;;;;;;;;;2611773;54;20401;-75
2023/12/03 00:48:43;;;;;;;33.50;20.40;;;;;;;;;;2611939;54;20439;-74
2023/12/03 00:51:09;;;;;;;24.50;14.63;;;;;;;;;;2611075;51;20435;-73
2023/12/03 00:53:35;;;;;;;26.47;15.20;;;;;;;;;;2612329;39;20872;-75
2023/12/03 00:56:01;;;;;;;32.60;18.97;;;;;;;;;;2610246;47;21012;-74
2023/12/03 00:58:27;;;;;;;30.80;17.83;;;;;;;;;;2611673;54;20430;-74
2023/12/03 01:00:54;;;;;;;32.70;19.77;;;;;;;;;;2611161;54;20453;-74
2023/12/03 01:03:20;;;;;;;24.60;13.30;;;;;;;;;;2610733;54;21376;-74
2023/12/03 01:05:46;;;;;;;23.17;11.93;;;;;;;;;;2611843;54;20430;-79
2023/12/03 01:08:12;;;;;;;32.20;19.40;;;;;;;;;;2612489;39;21213;-78
2023/12/03 01:10:38;;;;;;;30.80;18.90;;;;;;;;;;2610939;46;20417;-79
2023/12/03 01:13:04;;;;;;;33.83;19.40;;;;;;;;;;2610896;54;20530;-79
2023/12/03 01:15:30;;;;;;;29.27;18.70;;;;;;;;;;2611505;54;20405;-79
2023/12/03 01:17:56;;;;;;;16.73;11.50;;;;;;;;;;2611678;54;20431;-79
2023/12/03 01:20:22;;;;;;;24.80;14.63;;;;;;;;;;2611218;39;20983;-80
2023/12/03 01:22:49;;;;;;;29.00;17.07;;;;;;;;;;2611691;54;20431;-79
2023/12/03 01:25:15;;;;;;;33.40;18.07;;;;;;;;;;2610406;47;20436;-80
2023/12/03 01:27:41;;;;;;;28.90;21.63;;;;;;;;;;2610853;47;20411;-80
2023/12/03 01:30:07;;;;;;;42.63;23.37;;;;;;;;;;2612103;54;20432;-78
2023/12/03 01:32:33;;;;;;;31.03;19.43;;;;;;;;;;2610518;54;20441;-80
2023/12/03 01:34:59;;;;;;;39.70;22.20;;;;;;;;;;2611101;47;20474;-79
2023/12/03 01:37:26;;;;;;;42.87;24.73;;;;;;;;;;2611315;47;20415;-79
2023/12/03 01:39:52;;;;;;;36.63;19.43;;;;;;;;;;2612343;54;20466;-79
2023/12/03 01:42:20;;;;;;;47.27;23.47;;;;;;;;;;2611075;47;20435;-78
2023/12/03 01:44:46;;;;;;;28.83;17.60;;;;;;;;;;2611278;54;20403;-80
2023/12/03 01:47:14;;;;;;;36.10;18.90;;;;;;;;;;2611295;54;20411;-79
2023/12/03 01:49:40;;;;;;;41.13;21.13;;;;;;;;;;2610315;54;20419;-80
2023/12/03 01:52:07;;;;;;;27.53;14.37;;;;;;;;;;2611829;54;20419;-79
2023/12/03 01:54:37;;;;;;;51.10;24.47;;;;;;;;;;2610944;54;20956;-79
2023/12/03 01:57:03;;;;;;;41.77;22.60;;;;;;;;;;2612748;39;20797;-79
2023/12/03 01:59:30;;;;;;;42.57;22.00;;;;;;;;;;2611308;54;20430;-80
2023/12/03 02:01:56;;;;;;;39.63;18.50;;;;;;;;;;2611471;54;20411;-79
2023/12/03 02:04:22;;;;;;;39.30;21.57;;;;;;;;;;2611786;54;20431;-80
2023/12/03 02:06:49;;;;;;;40.83;18.33;;;;;;;;;;2611315;39;20808;-79
2023/12/03 02:09:16;;;;;;;36.43;22.03;;;;;;;;;;2612576;54;20963;-81
2023/12/03 02:11:45;;;;;;;28.97;16.63;;;;;;;;;;2611996;47;20439;-78
2023/12/03 02:14:12;;;;;;;33.97;20.67;;;;;;;;;;2612496;39;20625;-79
2023/12/03 02:16:44;;;;;;;33.53;18.93;;;;;;;;;;2612121;54;20542;-79
2023/12/03 02:19:10;;;;;;;39.17;20.33;;;;;;;;;;2611997;54;20439;-78
2023/12/03 02:21:36;;;;;;;36.30;19.30;;;;;;;;;;2612422;54;20439;-79
2023/12/03 02:24:02;;;;;;;49.73;22.90;;;;;;;;;;2611355;39;20865;-79
2023/12/03 02:26:28;;;;;;;34.50;22.20;;;;;;;;;;2610845;39;20781;-79
2023/12/03 02:28:54;;;;;;;34.83;20.17;;;;;;;;;;2611179;54;20578;-80
2023/12/03 02:31:20;;;;;;;49.43;24.23;;;;;;;;;;2612355;39;20822;-80
2023/12/03 02:33:51;;;;;;;48.20;23.37;;;;;;;;;;2611640;54;20426;-79
2023/12/03 02:36:17;;;;;;;36.53;19.43;;;;;;;;;;2611606;54;20419;-76
2023/12/03 02:38:43;;;;;;;52.47;24.87;;;;;;;;;;2611585;54;20387;-79
2023/12/03 02:41:09;;;;;;;35.13;19.83;;;;;;;;;;2611098;39;21196;-77
2023/12/03 02:43:35;;;;;;;35.77;20.53;;;;;;;;;;2612166;54;20981;-79
2023/12/03 02:46:01;;;;;;;37.77;20.93;;;;;;;;;;2612118;54;20434;-78
2023/12/03 02:48:27;;;;;;;38.67;20.10;;;;;;;;;;2612440;54;20425;-78
2023/12/03 02:50:53;;;;;;;37.17;21.10;;;;;;;;;;2612625;54;20419;-78
2023/12/03 02:53:19;;;;;;;42.77;21.80;;;;;;;;;;2610340;54;20406;-79
2023/12/03 02:55:46;;;;;;;29.37;17.00;;;;;;;;;;2610748;47;20559;-79
2023/12/03 02:58:12;;;;;;;39.63;18.07;;;;;;;;;;2610547;54;20439;-78
2023/12/03 03:00:38;;;;;;;38.83;20.97;;;;;;;;;;2611046;54;21525;-77
2023/12/03 03:03:04;;;;;;;41.30;21.70;;;;;;;;;;2611552;54;20446;-77
2023/12/03 03:05:30;;;;;;;29.40;18.40;;;;;;;;;;2610123;54;20428;-76
2023/12/03 03:07:56;;;;;;;26.90;14.30;;;;;;;;;;2610542;54;20414;-75
2023/12/03 03:10:22;;;;;;;27.27;15.47;;;;;;;;;;2610224;47;20469;-75
2023/12/03 03:12:49;;;;;;;30.43;16.50;;;;;;;;;;2610419;54;20434;-76
2023/12/03 03:15:15;;;;;;;40.87;16.73;;;;;;;;;;2610457;54;20528;-79
2023/12/03 03:17:41;;;;;;;38.33;21.60;;;;;;;;;;2609775;54;20444;-79
2023/12/03 03:20:07;;;;;;;40.13;20.43;;;;;;;;;;2611109;39;20786;-78
2023/12/03 03:22:33;;;;;;;48.67;22.77;;;;;;;;;;2609970;54;20407;-78
2023/12/03 03:25:00;;;;;;;45.90;22.13;;;;;;;;;;2610485;54;20463;-71
2023/12/03 03:27:26;;;;;;;42.93;21.40;;;;;;;;;;2609733;47;20535;-72
2023/12/03 03:29:52;;;;;;;42.90;22.90;;;;;;;;;;2610023;47;20430;-72
2023/12/03 03:32:18;;;;;;;46.77;21.73;;;;;;;;;;2610333;31;21018;-72
2023/12/03 03:34:45;;;;;;;37.90;20.30;;;;;;;;;;2609715;54;20442;-72
2023/12/03 03:37:11;;;;;;;43.53;22.23;;;;;;;;;;2611153;54;20406;-73
2023/12/03 03:39:37;;;;;;;30.60;18.37;;;;;;;;;;2609272;54;20980;-72
2023/12/03 03:42:03;;;;;;;20.87;12.77;;;;;;;;;;2610403;54;20420;-72
2023/12/03 03:44:29;;;;;;;37.93;18.27;;;;;;;;;;2610833;54;20391;-72
2023/12/03 03:46:55;;;;;;;25.00;13.40;;;;;;;;;;2611032;54;20476;-72
2023/12/03 03:49:21;;;;;;;41.17;20.00;;;;;;;;;;2610679;54;21403;-73
2023/12/03 03:51:47;;;;;;;37.33;18.77;;;;;;;;;;2612031;54;20431;-71
2023/12/03 03:54:14;;;;;;;27.00;16.80;;;;;;;;;;2609846;54;20408;-73
2023/12/03 03:56:40;;;;;;;31.90;20.03;;;;;;;;;;2610687;54;20407;-73
2023/12/03 03:59:06;;;;;;;29.30;18.43;;;;;;;;;;2610552;54;20423;-72
2023/12/03 04:01:32;;;;;;;18.53;10.00;;;;;;;;;;2610672;54;20519;-72
2023/12/03 04:03:58;;;;;;;38.20;18.90;;;;;;;;;;2611565;54;20419;-73
2023/12/03 04:06:24;;;;;;;38.57;21.77;;;;;;;;;;2610489;54;20979;-72
2023/12/03 04:08:50;;;;;;;43.80;21.80;;;;;;;;;;2611063;54;20422;-72
2023/12/03 04:11:16;;;;;;;29.63;13.50;;;;;;;;;;2609601;54;21059;-72
2023/12/03 04:13:42;;;;;;;36.37;20.67;;;;;;;;;;2611204;39;21557;-74
2023/12/03 04:16:09;;;;;;;37.07;20.57;;;;;;;;;;2610799;54;20407;-73
2023/12/03 04:18:36;;;;;;;43.03;22.40;;;;;;;;;;2610699;54;20411;-73
2023/12/03 04:21:02;;;;;;;36.00;21.60;;;;;;;;;;2610885;54;20403;-73
2023/12/03 04:23:28;;;;;;;38.63;22.13;;;;;;;;;;2610449;54;20450;-73
2023/12/03 04:25:54;;;;;;;41.27;20.13;;;;;;;;;;2610677;54;20449;-73
2023/12/03 04:28:20;;;;;;;46.77;23.67;;;;;;;;;;2610943;54;20972;-72
2023/12/03 04:30:46;;;;;;;29.43;16.33;;;;;;;;;;2610854;39;20777;-72
2023/12/03 04:33:13;;;;;;;38.93;17.90;;;;;;;;;;2610846;54;20387;-73
2023/12/03 04:35:39;;;;;;;30.57;18.40;;;;;;;;;;2610895;54;20418;-74
2023/12/03 04:38:05;;;;;;;39.90;21.57;;;;;;;;;;2611299;47;20447;-75
2023/12/03 04:40:31;;;;;;;31.50;19.00;;;;;;;;;;2610706;54;20455;-75
2023/12/03 04:42:57;;;;;;;28.50;15.63;;;;;;;;;;2610854;54;20434;-75
2023/12/03 04:45:23;;;;;;;29.20;19.17;;;;;;;;;;2610937;47;20442;-75
2023/12/03 04:47:49;;;;;;;33.33;19.67;;;;;;;;;;2610109;54;20476;-74
2023/12/03 04:50:15;;;;;;;32.23;19.20;;;;;;;;;;2611610;39;20828;-77
2023/12/03 04:52:41;;;;;;;26.67;15.17;;;;;;;;;;2610573;54;20429;-75
2023/12/03 04:55:08;;;;;;;37.70;20.10;;;;;;;;;;2610413;54;20423;-77
2023/12/03 04:57:34;;;;;;;37.13;19.73;;;;;;;;;;2610887;54;20419;-77
2023/12/03 05:00:00;;;;;;;36.23;22.20;;;;;;;;;;2610297;54;20391;-76
2023/12/03 05:02:26;;;;;;;31.10;18.93;;;;;;;;;;2611579;31;20916;-77
2023/12/03 05:04:52;;;;;;;37.23;16.50;;;;;;;;;;2610527;54;21334;-77
2023/12/03 05:07:18;;;;;;;28.10;14.17;;;;;;;;;;2611713;39;20940;-77
2023/12/03 05:09:44;;;;;;;28.33;16.90;;;;;;;;;;2611848;39;20819;-77
2023/12/03 05:12:10;;;;;;;34.33;18.03;;;;;;;;;;2610837;54;20529;-78
2023/12/03 05:14:37;;;;;;;29.10;17.50;;;;;;;;;;2611143;54;20395;-77
2023/12/03 05:17:03;;;;;;;22.73;12.60;;;;;;;;;;2610718;54;20415;-78
2023/12/03 05:19:29;;;;;;;23.47;13.87;;;;;;;;;;2610991;54;20432;-77
2023/12/03 05:21:55;;;;;;;23.70;15.20;;;;;;;;;;2610724;54;20410;-77
2023/12/03 05:24:21;;;;;;;40.53;17.73;;;;;;;;;;2610427;54;20450;-76
2023/12/03 05:26:48;;;;;;;29.93;16.07;;;;;;;;;;2611709;39;20898;-76
2023/12/03 05:29:14;;;;;;;34.10;19.33;;;;;;;;;;2610984;54;20431;-77
2023/12/03 05:31:44;;;;;;;35.10;19.27;;;;;;;;;;2610403;39;20903;-76
2023/12/03 05:34:10;;;;;;;36.10;20.00;;;;;;;;;;2610215;54;21290;-76
2023/12/03 05:36:36;;;;;;;32.40;16.43;;;;;;;;;;2610818;39;21379;-77
2023/12/03 05:39:02;;;;;;;29.67;18.77;;;;;;;;;;2611233;39;20804;-76
2023/12/03 05:41:28;;;;;;;28.47;13.60;;;;;;;;;;2610968;39;20848;-77
2023/12/03 05:43:55;;;;;;;28.87;15.90;;;;;;;;;;2610199;54;20415;-76
2023/12/03 05:46:21;;;;;;;14.93;9.33;;;;;;;;;;2610268;54;20452;-77
2023/12/03 05:48:47;;;;;;;25.37;11.70;;;;;;;;;;2610525;54;20423;-77
2023/12/03 05:51:13;;;;;;;27.20;15.70;;;;;;;;;;2609899;54;20398;-77
2023/12/03 05:53:39;;;;;;;27.33;12.47;;;;;;;;;;2610855;54;20428;-78
2023/12/03 05:56:06;;;;;;;27.83;14.60;;;;;;;;;;2609579;54;20419;-78
2023/12/03 05:58:32;;;;;;;30.23;15.17;;;;;;;;;;2610634;54;20418;-77
2023/12/03 06:00:58;;;;;;;26.80;15.53;;;;;;;;;;2611586;54;20391;-77
2023/12/03 06:03:24;;;;;;;26.23;15.00;;;;;;;;;;2611875;39;21073;-79
2023/12/03 06:05:50;;;;;;;21.10;12.53;;;;;;;;;;2611236;39;20843;-78
2023/12/03 06:08:16;;;;;;;15.40;9.70;;;;;;;;;;2611866;54;20449;-79
2023/12/03 06:10:42;;;;;;;24.37;14.27;;;;;;;;;;2611652;54;20371;-78
2023/12/03 06:13:08;;;;;;;22.10;13.43;;;;;;;;;;2611880;54;20437;-80
2023/12/03 06:15:34;;;;;;;24.93;15.80;;;;;;;;;;2612114;47;20419;-79
2023/12/03 06:18:00;;;;;;;30.03;16.27;;;;;;;;;;2611883;54;20434;-80
2023/12/03 06:20:26;;;;;;;39.60;16.73;;;;;;;;;;2611264;54;20413;-79
2023/12/03 06:22:52;;;;;;;27.90;16.00;;;;;;;;;;2611228;47;20421;-80
2023/12/03 06:25:18;;;;;;;26.53;14.40;;;;;;;;;;2611762;39;20676;-79
2023/12/03 06:27:44;;;;;;;25.57;13.07;;;;;;;;;;2611220;54;20526;-79
2023/12/03 06:30:10;;;;;;;31.60;16.97;;;;;;;;;;2611736;39;20856;-78
2023/12/03 06:32:36;;;;;;;21.97;13.43;;;;;;;;;;2611699;54;20427;-79
2023/12/03 06:35:04;;;;;;;23.67;11.93;;;;;;;;;;2610520;54;20395;-79
2023/12/03 06:37:30;;;;;;;27.70;15.87;;;;;;;;;;2611095;54;20406;-78
2023/12/03 06:39:56;;;;;;;26.00;15.20;;;;;;;;;;2611745;54;20451;-78
2023/12/03 06:42:22;;;;;;;26.93;13.67;;;;;;;;;;2610703;54;20428;-79
2023/12/03 06:44:48;;;;;;;28.23;16.20;;;;;;;;;;2610990;54;20419;-78
2023/12/03 06:47:14;;;;;;;25.67;14.60;;;;;;;;;;2611038;47;20454;-79
2023/12/03 06:49:42;;;;;;;26.67;13.63;;;;;;;;;;2611656;54;20399;-79
2023/12/03 06:52:08;;;;;;;13.40;8.97;;;;;;;;;;2611599;47;20480;-78
2023/12/03 06:54:34;;;;;;;23.60;14.80;;;;;;;;;;2610229;54;20551;-79
2023/12/03 06:57:00;;;;;;;25.87;14.03;;;;;;;;;;2609761;54;20426;-78
2023/12/03 06:59:26;;;;;;;14.93;10.67;;;;;;;;;;2610151;54;20420;-79
2023/12/03 07:01:52;;;;;;;23.87;14.63;;;;;;;;;;2610142;54;20571;-78
2023/12/03 07:04:18;;;;;;;11.43;9.10;;;;;;;;;;2610209;54;20403;-78
2023/12/03 07:06:44;;;;;;;24.33;13.20;;;;;;;;;;2610277;47;20466;-78
2023/12/03 07:09:11;;;;;;;23.97;15.00;;;;;;;;;;2610000;54;20404;-78
2023/12/03 07:11:37;;;;;;;26.77;13.20;;;;;;;;;;2611388;54;20954;-79
2023/12/03 07:14:04;;;;;;;25.87;14.30;;;;;;;;;;2611639;39;20968;-75
2023/12/03 07:16:30;;;;;;;22.53;14.77;;;;;;;;;;2611371;46;20428;-75
2023/12/03 07:18:56;;;;;;;28.27;15.67;;;;;;;;;;2611460;54;20407;-76
2023/12/03 07:21:22;;;;;;;28.33;13.70;;;;;;;;;;2610549;54;20419;-74
2023/12/03 07:23:48;;;;;;;23.07;12.90;;;;;;;;;;2610418;54;20415;-73
2023/12/03 07:26:14;;;;;;;14.90;10.67;;;;;;;;;;2610070;47;20462;-74
2023/12/03 07:28:41;;;;;;;21.10;15.13;;;;;;;;;;2610799;54;20418;-75
2023/12/03 07:31:08;;;;;;;24.70;15.53;;;;;;;;;;2612339;47;20439;-74
2023/12/03 07:33:34;;;;;;;23.27;14.90;;;;;;;;;;2611057;54;20449;-74
2023/12/03 07:36:01;;;;;;;15.77;12.40;;;;;;;;;;2611162;54;20411;-74
2023/12/03 07:38:27;;;;;;;25.70;15.47;;;;;;;;;;2612047;39;20799;-75
2023/12/03 07:40:53;;;;;;;19.90;12.83;;;;;;;;;;2611049;54;21451;-74
2023/12/03 07:43:19;;;;;;;24.17;14.60;;;;;;;;;;2610629;54;21174;-75
2023/12/03 07:45:45;;;;;;;21.70;14.53;;;;;;;;;;2611388;54;20948;-76
2023/12/03 07:48:11;;;;;;;27.97;16.50;;;;;;;;;;2610992;54;20403;-74
2023/12/03 07:50:37;;;;;;;25.77;14.00;;;;;;;;;;2610982;54;20426;-74
2023/12/03 07:53:03;;;;;;;28.83;16.17;;;;;;;;;;2610569;54;20482;-76
2023/12/03 07:55:29;;;;;;;27.00;16.20;;;;;;;;;;2611341;47;20430;-75
2023/12/03 07:57:55;;;;;;;28.23;16.60;;;;;;;;;;2611103;54;20387;-76
2023/12/03 08:00:21;;;;;;;20.60;15.20;;;;;;;;;;2610957;39;21086;-76
2023/12/03 08:02:47;;;;;;;25.60;15.67;;;;;;;;;;2610872;54;20382;-75
2023/12/03 08:05:13;;;;;;;20.43;14.20;;;;;;;;;;2610145;46;20430;-75
2023/12/03 08:07:39;;;;;;;26.40;15.30;;;;;;;;;;2611164;54;21263;-75
2023/12/03 08:10:06;;;;;;;26.60;16.80;;;;;;;;;;2611977;47;20423;-74
2023/12/03 08:12:32;;;;;;;19.90;11.77;;;;;;;;;;2611913;54;20433;-75
2023/12/03 08:14:58;;;;;;;14.93;12.03;;;;;;;;;;2610914;54;20419;-74
2023/12/03 08:17:24;;;;;;;21.43;14.20;;;;;;;;;;2612752;54;20424;-74
2023/12/03 08:19:51;;;;;;;19.77;13.20;;;;;;;;;;2613371;54;20451;-75
2023/12/03 08:22:16;;;;;;;24.87;14.10;;;;;;;;;;2610723;54;20415;-75
2023/12/03 08:24:42;;;;;;;21.63;13.50;;;;;;;;;;2611465;54;20543;-75
2023/12/03 08:27:08;;;;;;;19.33;14.50;;;;;;;;;;2611093;39;20796;-74
2023/12/03 08:29:34;;;;;;;21.27;13.43;;;;;;;;;;2611574;54;20427;-75
2023/12/03 08:32:00;;;;;;;21.73;12.27;;;;;;;;;;2610865;54;21048;-77
2023/12/03 08:34:28;;;;;;;25.03;16.40;;;;;;;;;;2611709;54;20445;-75
2023/12/03 08:36:55;;;;;;;15.97;12.73;;;;;;;;;;2611650;39;21212;-73
2023/12/03 08:39:21;;;;;;;22.67;15.17;;;;;;;;;;2610924;54;20482;-76
2023/12/03 08:41:47;;;;;;;24.83;15.17;;;;;;;;;;2611603;54;20391;-76
2023/12/03 08:44:13;;;;;;;21.03;15.67;;;;;;;;;;2611682;54;20399;-76
2023/12/03 08:46:39;;;;;;;21.83;13.87;;;;;;;;;;2611953;39;20800;-75
2023/12/03 08:49:05;;;;;;;23.13;15.20;;;;;;;;;;2611493;54;20415;-75
2023/12/03 08:51:31;;;;;;;26.00;15.80;;;;;;;;;;2611590;39;20890;-76
2023/12/03 08:53:57;;;;;;;31.83;15.03;;;;;;;;;;2611476;54;20408;-76
2023/12/03 08:56:23;;;;;;;19.67;14.93;;;;;;;;;;2611601;54;20443;-75
2023/12/03 08:58:49;;;;;;;19.53;14.93;;;;;;;;;;2611139;39;20843;-76
2023/12/03 09:01:15;;;;;;;17.93;12.50;;;;;;;;;;2611663;47;20414;-76
2023/12/03 09:03:43;;;;;;;24.60;16.47;;;;;;;;;;2612174;54;20418;-77
2023/12/03 09:06:09;;;;;;;17.53;13.63;;;;;;;;;;2611898;54;20412;-76
2023/12/03 09:08:35;;;;;;;23.07;15.60;;;;;;;;;;2613059;39;20975;-77
2023/12/03 09:11:01;;;;;;;20.63;12.27;;;;;;;;;;2612289;54;20410;-76
2023/12/03 09:13:27;;;;;;;16.03;9.53;;;;;;;;;;2611090;54;20391;-75
2023/12/03 09:15:56;;;;;;;24.67;16.00;;;;;;;;;;2612493;54;20431;-75
2023/12/03 09:18:22;;;;;;;23.93;16.40;;;;;;;;;;2611998;47;20416;-77
2023/12/03 09:20:48;;;;;;;19.40;14.23;;;;;;;;;;2611386;47;20961;-75
2023/12/03 09:23:14;;;;;;;18.70;14.30;;;;;;;;;;2612056;54;20420;-74
2023/12/03 09:25:40;;;;;;;20.90;14.67;;;;;;;;;;2612581;54;20568;-75
2023/12/03 09:28:06;;;;;;;22.13;15.43;;;;;;;;;;2612533;54;21040;-73
2023/12/03 09:30:32;;;;;;;15.63;14.00;;;;;;;;;;2612019;54;20442;-75
2023/12/03 09:32:59;;;;;;;23.83;15.20;;;;;;;;;;2612142;54;20430;-74
2023/12/03 09:35:29;;;;;;;19.93;15.10;;;;;;;;;;2612597;54;20419;-79
2023/12/03 09:37:55;;;;;;;22.07;15.30;;;;;;;;;;2612549;39;20897;-80
2023/12/03 09:40:21;;;;;;;17.63;14.77;;;;;;;;;;2612856;47;20456;-79
2023/12/03 09:42:47;;;;;;;16.83;14.20;;;;;;;;;;2612121;54;20429;-79
2023/12/03 09:45:16;;;;;;;17.00;12.20;;;;;;;;;;2613051;39;20819;-78
2023/12/03 09:47:45;;;;;;;17.00;14.70;;;;;;;;;;2611782;54;20532;-81
2023/12/03 09:50:11;;;;;;;11.90;10.07;;;;;;;;;;2612792;54;20411;-80
2023/12/03 09:52:40;;;;;;;22.73;17.13;;;;;;;;;;2611781;54;20419;-79
2023/12/03 09:55:06;;;;;;;17.97;14.03;;;;;;;;;;2612672;54;20393;-79
2023/12/03 09:57:34;;;;;;;18.07;14.40;;;;;;;;;;2611053;54;20447;-78
2023/12/03 10:00:01;;;;;;;17.70;13.70;;;;;;;;;;2612328;54;20433;-78
2023/12/03 10:02:29;;;;;;;16.40;13.70;;;;;;;;;;2610862;54;20428;-80
2023/12/03 10:04:58;;;;;;;15.73;12.53;;;;;;;;;;2610328;54;20399;-79
2023/12/03 10:07:28;;;;;;;13.00;11.67;;;;;;;;;;2611370;54;20480;-79
2023/12/03 10:09:55;;;;;;;16.93;14.20;;;;;;;;;;2612363;39;20787;-79
2023/12/03 10:12:24;;;;;;;16.30;14.00;;;;;;;;;;2610872;39;20708;-79
2023/12/03 10:14:50;;;;;;;14.47;12.70;;;;;;;;;;2611919;54;20392;-79
2023/12/03 10:17:20;;;;;;;16.77;15.03;;;;;;;;;;2611565;47;20411;-80
2023/12/03 10:19:46;;;;;;;14.57;12.80;;;;;;;;;;2611741;54;20378;-79
2023/12/03 10:22:12;;;;;;;12.23;10.97;;;;;;;;;;2612099;39;20794;-81
2023/12/03 10:24:48;;;;;;;20.37;15.50;;;;;;;;;;2611666;47;20547;-75
2023/12/03 10:27:14;;;;;;;15.67;13.97;;;;;;;;;;2611266;54;20431;-76
2023/12/03 10:29:40;;;;;;;14.23;12.53;;;;;;;;;;2611612;54;20455;-76
2023/12/03 10:32:07;;;;;;;19.57;15.63;;;;;;;;;;2610427;54;20414;-75
2023/12/03 10:34:33;;;;;;;14.40;12.97;;;;;;;;;;2612092;47;20428;-76
2023/12/03 10:37:01;;;;;;;12.80;10.73;;;;;;;;;;2613197;46;20439;-75
2023/12/03 10:39:27;;;;;;;19.90;15.40;;;;;;;;;;2612342;54;20434;-77
2023/12/03 10:41:55;;;;;;;18.53;14.07;;;;;;;;;;2612011;54;20428;-77
2023/12/03 10:44:23;;;;;;;17.87;13.77;;;;;;;;;;2610557;47;21010;-78
2023/12/03 10:46:50;;;;;;;14.97;11.73;;;;;;;;;;2611460;54;21191;-76
2023/12/03 10:49:16;;;;;;;18.33;15.17;;;;;;;;;;2611272;54;20479;-78
2023/12/03 10:51:43;;;;;;;19.57;16.53;;;;;;;;;;2611296;54;20550;-79
2023/12/03 10:54:09;;;;;;;19.27;14.97;;;;;;;;;;2610977;54;20469;-77
2023/12/03 10:56:35;;;;;;;28.63;15.40;;;;;;;;;;2611160;54;20440;-77
2023/12/03 10:59:03;;;;;;;18.43;13.87;;;;;;;;;;2610377;54;20423;-78
2023/12/03 11:01:30;;;;;;;16.87;14.23;;;;;;;;;;2610090;47;21127;-77
2023/12/03 11:04:00;;;;;;;17.73;13.47;;;;;;;;;;2610599;54;20417;-77
2023/12/03 11:06:26;;;;;;;26.07;16.20;;;;;;;;;;2610981;54;20421;-77
2023/12/03 11:08:54;;;;;;;17.33;14.53;;;;;;;;;;2610800;54;20420;-77
2023/12/03 11:11:20;;;;;;;18.50;14.43;;;;;;;;;;2611349;39;20908;-76
2023/12/03 11:13:49;;;;;;;20.10;15.60;;;;;;;;;;2611609;39;20539;-76
2023/12/03 11:16:15;;;;;;;18.90;15.07;;;;;;;;;;2611225;39;21133;-76
2023/12/03 11:18:45;;;;;;;14.90;12.80;;;;;;;;;;2610142;54;20483;-76
2023/12/03 11:21:33;;;;;;;17.73;14.10;;;;;;;;;;2610915;54;20406;-77
2023/12/03 11:24:02;;;;;;;17.40;15.53;;;;;;;;;;2609387;54;20418;-76
2023/12/03 11:26:28;;;;;;;21.10;17.30;;;;;;;;;;2611208;54;20398;-77
2023/12/03 11:28:57;;;;;;;21.27;17.83;;;;;;;;;;2610830;54;20441;-75
2023/12/03 11:31:24;;;;;;;19.40;15.23;;;;;;;;;;2611833;54;20399;-76
2023/12/03 11:33:57;;;;;;;14.57;13.03;;;;;;;;;;2611518;54;20492;-77
2023/12/03 11:36:42;;;;;;;20.97;15.67;;;;;;;;;;2612089;39;20801;-77
2023/12/03 11:39:08;;;;;;;19.87;15.40;;;;;;;;;;2611497;54;20423;-76
2023/12/03 11:41:38;;;;;;;17.53;14.50;;;;;;;;;;2611831;46;20502;-76
2023/12/03 11:44:20;;;;;;;15.60;13.80;;;;;;;;;;2609991;54;20426;-75
2023/12/03 11:46:50;;;;;;;14.67;11.73;;;;;;;;;;2612491;54;20936;-75
2023/12/03 11:49:19;;;;;;;20.70;15.00;;;;;;;;;;2610455;54;20447;-74
2023/12/03 11:51:47;;;;;;;21.13;15.17;;;;;;;;;;2610724;54;20442;-76
2023/12/03 11:54:18;;;;;;;20.47;15.57;;;;;;;;;;2610891;54;21072;-77
2023/12/03 11:56:44;;;;;;;19.17;16.03;;;;;;;;;;2610941;54;20495;-77
2023/12/03 11:59:13;;;;;;;24.60;16.03;;;;;;;;;;2610777;54;20439;-77
2023/12/03 12:01:39;;;;;;;17.73;14.60;;;;;;;;;;2608135;54;20396;-77
2023/12/03 12:04:05;;;;;;;14.80;13.30;;;;;;;;;;2611235;54;20434;-78
2023/12/03 12:06:33;;;;;;;17.70;15.57;;;;;;;;;;2611273;54;20416;-79
2023/12/03 12:08:59;;;;;;;19.50;15.83;;;;;;;;;;2610674;39;21412;-77
2023/12/03 12:11:25;;;;;;;19.30;15.77;;;;;;;;;;2611093;54;20442;-75
2023/12/03 12:13:52;;;;;;;18.87;14.60;;;;;;;;;;2610654;47;20452;-77
2023/12/03 12:16:18;;;;;;;16.30;13.20;;;;;;;;;;2610672;54;20413;-77
2023/12/03 12:18:45;;;;;;;17.30;13.80;;;;;;;;;;2609962;54;20473;-76
2023/12/03 12:21:14;;;;;;;18.20;14.23;;;;;;;;;;2611467;54;20401;-77
2023/12/03 12:23:43;;;;;;;21.33;14.63;;;;;;;;;;2611083;54;20436;-76
2023/12/03 12:26:10;;;;;;;16.40;13.23;;;;;;;;;;2611185;54;20427;-76
2023/12/03 12:28:36;;;;;;;18.50;15.60;;;;;;;;;;2611544;39;20916;-75
2023/12/03 12:31:02;;;;;;;17.67;13.90;;;;;;;;;;2610221;54;20441;-76
2023/12/03 12:33:28;;;;;;;19.00;15.20;;;;;;;;;;2611198;54;20431;-75
2023/12/03 12:35:59;;;;;;;17.07;14.90;;;;;;;;;;2612638;39;20753;-75
2023/12/03 12:38:25;;;;;;;19.50;14.80;;;;;;;;;;2611328;54;20418;-75
2023/12/03 12:40:52;;;;;;;11.33;10.43;;;;;;;;;;2611331;54;20482;-77
2023/12/03 12:43:21;;;;;;;16.60;14.83;;;;;;;;;;2611556;54;20422;-75
2023/12/03 12:45:47;;;;;;;16.00;13.73;;;;;;;;;;2610959;47;21584;-76
2023/12/03 12:48:26;;;;;;;17.50;15.47;;;;;;;;;;2611125;46;20444;-76
2023/12/03 12:50:52;;;;;;;17.70;15.40;;;;;;;;;;2611333;39;20844;-75
2023/12/03 12:53:19;;;;;;;24.13;15.23;;;;;;;;;;2610743;39;21085;-76
2023/12/03 12:55:45;;;;;;;17.53;12.50;;;;;;;;;;2611644;47;20430;-76
2023/12/03 12:58:11;;;;;;;18.60;15.30;;;;;;;;;;2611377;54;20442;-77
2023/12/03 13:00:37;;;;;;;20.93;14.93;;;;;;;;;;2610048;54;20498;-75
2023/12/03 13:03:03;;;;;;;15.57;13.80;;;;;;;;;;2610151;54;20429;-74
2023/12/03 13:05:30;;;;;;;18.80;13.93;;;;;;;;;;2611615;46;20481;-82
2023/12/03 13:07:56;;;;;;;18.07;13.67;;;;;;;;;;2611909;54;21023;-81
2023/12/03 13:10:23;;;;;;;17.00;15.30;;;;;;;;;;2611591;54;20479;-81
2023/12/03 13:12:49;;;;;;;16.33;14.53;;;;;;;;;;2611510;47;20410;-79
2023/12/03 13:15:17;;;;;;;14.87;12.50;;;;;;;;;;2612744;46;20431;-82
2023/12/03 13:17:46;;;;;;;17.10;14.60;;;;;;;;;;2612846;54;20432;-83
2023/12/03 13:20:12;;;;;;;18.17;14.20;;;;;;;;;;2612978;54;20393;-82
2023/12/03 13:22:43;;;;;;;17.37;15.00;;;;;;;;;;2612787;54;20437;-81
2023/12/03 13:25:09;;;;;;;17.17;15.37;;;;;;;;;;2612981;39;20818;-82
2023/12/03 13:27:35;;;;;;;17.07;14.20;;;;;;;;;;2612895;47;20419;-83
2023/12/03 13:30:04;;;;;;;16.77;14.07;;;;;;;;;;2612145;47;20415;-81
2023/12/03 13:32:32;;;;;;;19.60;15.93;;;;;;;;;;2612142;54;20484;-83
2023/12/03 13:34:59;;;;;;;19.47;14.57;;;;;;;;;;2613390;54;20415;-82
2023/12/03 13:37:26;;;;;;;15.80;14.13;;;;;;;;;;2612865;54;20429;-82
2023/12/03 13:39:52;;;;;;;17.80;14.83;;;;;;;;;;2611881;54;20547;-80
2023/12/03 13:42:18;;;;;;;15.70;13.90;;;;;;;;;;2612773;46;20539;-83
2023/12/03 13:44:44;;;;;;;14.77;13.20;;;;;;;;;;2611959;39;20833;-82
2023/12/03 13:47:11;;;;;;;17.87;15.30;;;;;;;;;;2610984;54;20424;-82
2023/12/03 13:49:37;;;;;;;16.77;14.50;;;;;;;;;;2610735;47;20438;-84
2023/12/03 13:52:03;;;;;;;23.03;16.60;;;;;;;;;;2608942;47;21008;-82
2023/12/03 13:54:29;;;;;;;22.23;16.27;;;;;;;;;;2612331;54;20410;-75
2023/12/03 13:56:56;;;;;;;19.17;15.10;;;;;;;;;;2611298;39;20924;-75
2023/12/03 13:59:22;;;;;;;22.57;18.23;;;;;;;;;;2611932;54;20838;-74
2023/12/03 14:01:48;;;;;;;18.93;14.87;;;;;;;;;;2610041;54;20423;-74
2023/12/03 14:04:14;;;;;;;26.00;15.60;;;;;;;;;;2612060;39;20914;-77
2023/12/03 14:06:40;;;;;;;15.37;13.17;;;;;;;;;;2612283;54;20554;-76
2023/12/03 14:09:07;;;;;;;18.60;14.83;;;;;;;;;;2611912;54;20440;-75
2023/12/03 14:11:33;;;;;;;22.07;15.67;;;;;;;;;;2612021;47;20489;-74
2023/12/03 14:13:59;;;;;;;18.20;13.80;;;;;;;;;;2611854;54;20409;-79